createdAt,value
2023-03-16T00:01:28.644Z,2.05
2023-03-16T00:03:56.166Z,2.17
2023-03-16T00:06:25.655Z,1.83
2023-03-16T00:08:58.800Z,1.73
2023-03-16T00:11:27.754Z,1.58
2023-03-16T00:13:55.478Z,1.75
2023-03-16T00:16:23.021Z,1.40
2023-03-16T00:18:50.526Z,1.70
2023-03-16T00:21:18.050Z,1.35
2023-03-16T00:23:45.745Z,1.27
2023-03-16T00:26:13.312Z,1.55
2023-03-16T00:28:42.754Z,1.48
2023-03-16T00:31:12.728Z,1.65
2023-03-16T00:33:42.702Z,1.35
2023-03-16T00:36:11.568Z,1.63
2023-03-16T00:38:40.085Z,1.67
2023-03-16T00:41:09.089Z,1.38
2023-03-16T00:43:40.891Z,1.52
2023-03-16T00:46:10.349Z,1.60
2023-03-16T00:48:38.585Z,1.40
2023-03-16T00:51:07.560Z,1.30
2023-03-16T00:53:36.040Z,1.58
2023-03-16T00:56:04.631Z,1.40
2023-03-16T00:58:35.716Z,1.80
2023-03-16T01:01:03.401Z,1.60
2023-03-16T01:03:32.442Z,1.20
2023-03-16T01:06:04.546Z,1.90
2023-03-16T01:08:32.961Z,1.83
2023-03-16T01:11:03.526Z,1.95
2023-03-16T01:13:32.455Z,1.70
2023-03-16T01:15:59.991Z,1.98
2023-03-16T01:18:27.506Z,1.52
2023-03-16T01:20:56.454Z,1.90
2023-03-16T01:23:24.160Z,1.63
2023-03-16T01:25:54.013Z,1.60
2023-03-16T01:28:24.473Z,1.60
2023-03-16T01:30:54.060Z,1.60
2023-03-16T01:33:22.563Z,1.88
2023-03-16T01:35:53.549Z,1.60
2023-03-16T01:38:22.933Z,2.05
2023-03-16T01:40:51.528Z,1.60
2023-03-16T01:43:19.733Z,1.60
2023-03-16T01:46:14.203Z,1.38
2023-03-16T01:48:44.934Z,1.80
2023-03-16T01:51:15.452Z,2.03
2023-03-16T01:53:46.338Z,1.77
2023-03-16T01:56:15.193Z,1.88
2023-03-16T01:58:44.154Z,1.80
2023-03-16T02:01:12.442Z,1.88
2023-03-16T02:03:40.171Z,1.77
2023-03-16T02:06:09.279Z,1.70
2023-03-16T02:08:38.067Z,1.65
2023-03-16T02:11:08.557Z,1.67
2023-03-16T02:13:36.761Z,1.48
2023-03-16T02:16:04.926Z,1.77
2023-03-16T02:18:32.619Z,1.58
2023-03-16T02:21:06.858Z,1.65
2023-03-16T02:23:34.951Z,1.35
2023-03-16T02:26:04.960Z,1.80
2023-03-16T02:28:36.999Z,1.60
2023-03-16T02:31:06.329Z,1.73
2023-03-16T02:33:34.819Z,1.75
2023-03-16T02:36:02.403Z,2.20
2023-03-16T02:38:29.941Z,1.50
2023-03-16T02:40:59.269Z,1.70
2023-03-16T02:43:28.818Z,1.60
2023-03-16T02:45:58.353Z,1.70
2023-03-16T02:48:29.473Z,1.33
2023-03-16T02:50:56.991Z,1.50
2023-03-16T02:53:24.846Z,1.60
2023-03-16T02:55:52.405Z,1.50
2023-03-16T02:58:19.885Z,1.95
2023-03-16T03:00:47.389Z,1.92
2023-03-16T03:03:15.075Z,1.90
2023-03-16T03:05:44.025Z,1.77
2023-03-16T03:08:11.707Z,1.73
2023-03-16T03:10:39.324Z,1.52
2023-03-16T03:13:07.704Z,1.73
2023-03-16T03:15:35.428Z,1.60
2023-03-16T03:18:02.933Z,1.48
2023-03-16T03:20:30.899Z,1.73
2023-03-16T03:22:59.819Z,1.45
2023-03-16T03:25:27.811Z,1.73
2023-03-16T03:27:55.477Z,1.60
2023-03-16T03:30:25.874Z,1.70
2023-03-16T03:32:53.634Z,1.40
2023-03-16T03:35:21.527Z,1.88
2023-03-16T03:37:49.549Z,1.75
2023-03-16T03:40:19.143Z,1.70
2023-03-16T03:42:46.605Z,1.38
2023-03-16T03:45:14.699Z,1.70
2023-03-16T03:47:42.990Z,1.63
2023-03-16T03:50:11.298Z,1.67
2023-03-16T03:52:38.828Z,1.80
2023-03-16T03:55:06.894Z,1.60
2023-03-16T03:57:35.803Z,1.77
2023-03-16T04:00:04.672Z,1.58
2023-03-16T04:02:32.278Z,1.50
2023-03-16T04:04:59.844Z,1.75
2023-03-16T04:07:27.341Z,1.75
2023-03-16T04:09:54.870Z,1.63
2023-03-16T04:12:22.449Z,1.50
2023-03-16T04:14:51.596Z,1.98
2023-03-16T04:17:19.171Z,1.73
2023-03-16T04:19:47.122Z,1.60
2023-03-16T04:22:14.627Z,2.00
2023-03-16T04:24:43.129Z,2.20
2023-03-16T04:27:11.949Z,1.58
2023-03-16T04:29:39.877Z,1.40
2023-03-16T04:32:08.907Z,1.83
2023-03-16T04:34:36.433Z,1.63
2023-03-16T04:37:03.898Z,1.73
2023-03-16T04:39:31.364Z,1.80
2023-03-16T04:41:58.830Z,1.75
2023-03-16T04:44:26.370Z,1.90
2023-03-16T04:46:53.960Z,2.08
2023-03-16T04:49:22.862Z,2.22
2023-03-16T04:51:50.403Z,1.75
2023-03-16T04:54:17.887Z,1.83
2023-03-16T04:56:45.438Z,2.05
2023-03-16T04:59:12.900Z,1.63
2023-03-16T05:01:40.585Z,1.83
2023-03-16T05:04:08.132Z,1.58
2023-03-16T05:06:37.004Z,1.50
2023-03-16T05:09:05.949Z,1.88
2023-03-16T05:11:33.420Z,2.05
2023-03-16T05:14:02.010Z,2.15
2023-03-16T05:16:29.715Z,1.92
2023-03-16T05:18:58.739Z,2.00
2023-03-16T05:21:26.308Z,1.70
2023-03-16T05:23:55.160Z,1.48
2023-03-16T05:26:22.658Z,1.70
2023-03-16T05:28:50.136Z,1.88
2023-03-16T05:31:17.703Z,1.63
2023-03-16T05:33:45.328Z,1.98
2023-03-16T05:36:13.078Z,1.52
2023-03-16T05:38:40.636Z,1.70
2023-03-16T05:41:09.502Z,1.58
2023-03-16T05:43:37.132Z,1.63
2023-03-16T05:46:04.834Z,1.10
2023-03-16T05:48:32.425Z,1.60
2023-03-16T05:51:01.349Z,1.77
2023-03-16T05:53:29.313Z,1.90
2023-03-16T05:55:56.825Z,1.27
2023-03-16T05:58:25.860Z,2.15
2023-03-16T06:00:55.220Z,1.50
2023-03-16T06:03:23.263Z,1.40
2023-03-16T06:05:50.768Z,2.20
2023-03-16T06:08:18.218Z,2.10
2023-03-16T06:10:47.690Z,2.22
2023-03-16T06:13:15.265Z,1.85
2023-03-16T06:15:44.214Z,1.92
2023-03-16T06:18:11.728Z,1.73
2023-03-16T06:20:39.233Z,3.25
2023-03-16T06:23:06.723Z,2.63
2023-03-16T06:25:34.279Z,3.53
2023-03-16T06:28:01.824Z,2.70
2023-03-16T06:30:29.603Z,1.90
2023-03-16T06:33:00.121Z,1.70
2023-03-16T06:35:27.866Z,1.40
2023-03-16T06:37:55.334Z,1.80
2023-03-16T06:40:22.855Z,1.85
2023-03-16T06:42:51.407Z,2.00
2023-03-16T06:45:22.039Z,1.63
2023-03-16T06:47:49.566Z,2.20
2023-03-16T06:50:18.612Z,1.98
2023-03-16T06:52:46.140Z,1.50
2023-03-16T06:55:14.452Z,1.80
2023-03-16T06:57:42.716Z,1.60
2023-03-16T07:00:11.256Z,1.77
2023-03-16T07:02:40.422Z,1.73
2023-03-16T07:05:08.414Z,1.80
2023-03-16T07:07:37.219Z,1.70
2023-03-16T07:10:04.800Z,1.70
2023-03-16T07:12:32.452Z,2.10
2023-03-16T07:14:59.982Z,1.52
2023-03-16T07:17:27.475Z,1.80
2023-03-16T07:19:54.957Z,1.55
2023-03-16T07:22:23.080Z,1.67
2023-03-16T07:24:57.154Z,2.20
2023-03-16T07:27:24.756Z,1.77
2023-03-16T07:29:53.056Z,1.77
2023-03-16T07:32:20.636Z,1.80
2023-03-16T07:34:48.714Z,1.90
2023-03-16T07:37:18.408Z,1.65
2023-03-16T07:39:49.198Z,1.60
2023-03-16T07:42:18.131Z,1.80
2023-03-16T07:44:45.654Z,1.35
2023-03-16T07:47:13.425Z,1.70
2023-03-16T07:49:41.689Z,1.63
2023-03-16T07:52:09.386Z,1.90
2023-03-16T07:54:36.976Z,1.65
2023-03-16T07:57:04.528Z,1.70
2023-03-16T07:59:33.389Z,1.50
2023-03-16T08:02:00.916Z,1.63
2023-03-16T08:04:28.786Z,1.77
2023-03-16T08:07:00.143Z,1.60
2023-03-16T08:11:55.175Z,2.03
2023-03-16T08:14:23.692Z,1.85
2023-03-16T08:16:52.534Z,1.40
2023-03-16T08:19:20.267Z,2.10
2023-03-16T08:22:00.681Z,1.58
2023-03-16T08:24:29.486Z,1.60
2023-03-16T08:26:57.676Z,1.55
2023-03-16T08:31:56.269Z,1.80
2023-03-16T08:34:23.842Z,1.70
2023-03-16T08:36:51.430Z,2.13
2023-03-16T08:39:18.988Z,1.63
2023-03-16T08:41:48.079Z,1.73
2023-03-16T08:44:15.724Z,1.60
2023-03-16T08:46:43.391Z,2.72
2023-03-16T08:49:13.626Z,2.00
2023-03-16T08:51:41.760Z,1.83
2023-03-16T08:54:10.808Z,1.75
2023-03-16T08:56:38.356Z,2.20
2023-03-16T08:59:06.586Z,1.77
2023-03-16T09:01:34.609Z,1.58
2023-03-16T09:04:03.233Z,1.63
2023-03-16T09:06:32.297Z,1.55
2023-03-16T09:09:00.042Z,1.38
2023-03-16T09:11:30.533Z,1.67
2023-03-16T09:13:58.352Z,1.60
2023-03-16T09:16:26.052Z,1.55
2023-03-16T09:18:54.069Z,1.80
2023-03-16T09:21:21.634Z,1.45
2023-03-16T09:23:50.904Z,2.05
2023-03-16T09:26:18.764Z,1.55
2023-03-16T09:28:46.685Z,1.67
2023-03-16T09:31:17.786Z,1.50
2023-03-16T09:33:46.284Z,1.35
2023-03-16T09:36:14.112Z,1.95
2023-03-16T09:38:42.340Z,1.40
2023-03-16T09:41:11.767Z,1.83
2023-03-16T09:43:44.317Z,1.15
2023-03-16T09:46:13.041Z,1.75
2023-03-16T09:48:41.134Z,1.20
2023-03-16T09:51:15.337Z,1.20
2023-03-16T09:53:44.456Z,1.52
2023-03-16T09:56:17.006Z,0.85
2023-03-16T09:58:45.704Z,0.98
2023-03-16T10:01:16.919Z,1.48
2023-03-16T10:06:13.703Z,0.90
2023-03-16T10:08:42.011Z,1.10
2023-03-16T10:11:24.364Z,1.00
2023-03-16T10:13:53.921Z,1.10
2023-03-16T10:16:23.181Z,0.98
2023-03-16T10:18:52.273Z,0.93
2023-03-16T10:21:20.516Z,0.85
2023-03-16T10:23:49.426Z,0.85
2023-03-16T10:26:19.708Z,1.02
2023-03-16T10:28:48.684Z,0.93
2023-03-16T10:31:17.518Z,0.90
2023-03-16T10:33:45.491Z,1.25
2023-03-16T10:36:17.045Z,0.95
2023-03-16T10:38:47.105Z,1.00
2023-03-16T10:41:22.436Z,0.98
2023-03-16T10:43:52.665Z,1.13
2023-03-16T10:46:20.291Z,0.80
2023-03-16T10:48:53.205Z,0.80
2023-03-16T10:51:23.307Z,1.00
2023-03-16T10:53:51.389Z,0.70
2023-03-16T10:56:20.938Z,0.75
2023-03-16T10:58:48.465Z,1.00
2023-03-16T11:01:20.592Z,0.93
2023-03-16T11:03:50.966Z,0.95
2023-03-16T11:06:20.405Z,0.85
2023-03-16T11:08:48.708Z,0.70
2023-03-16T11:11:18.578Z,0.88
2023-03-16T11:13:47.110Z,1.00
2023-03-16T11:16:32.463Z,0.95
2023-03-16T11:19:04.671Z,0.70
2023-03-16T11:29:02.088Z,1.20
2023-03-16T11:31:34.365Z,1.08
2023-03-16T11:34:03.679Z,0.65
2023-03-16T11:36:38.881Z,0.80
2023-03-16T11:39:11.299Z,1.00
2023-03-16T13:08:08.043Z,0.60
2023-03-16T13:10:37.444Z,0.88
2023-03-16T13:13:11.293Z,0.68
2023-03-16T13:15:39.828Z,1.35
2023-03-16T13:18:22.119Z,1.35
2023-03-16T13:20:57.450Z,1.15
2023-03-16T13:23:28.802Z,1.90
2023-03-16T13:26:05.607Z,1.00
2023-03-16T13:28:34.294Z,0.85
2023-03-16T13:31:02.684Z,1.70
2023-03-16T13:33:32.911Z,0.63
2023-03-16T13:36:01.260Z,0.90
2023-03-16T13:38:30.366Z,1.70
2023-03-16T13:40:59.159Z,1.00
2023-03-16T13:43:28.756Z,0.90
2023-03-16T13:45:56.517Z,0.80
2023-03-16T13:48:24.228Z,0.75
2023-03-16T13:50:52.582Z,1.00
2023-03-16T13:53:22.752Z,1.10
2023-03-16T13:58:23.266Z,0.90
2023-03-16T14:00:51.033Z,0.80
2023-03-16T14:03:20.033Z,0.70
2023-03-16T14:05:48.292Z,1.08
2023-03-16T14:08:17.041Z,0.85
2023-03-16T14:10:45.166Z,0.55
2023-03-16T14:13:25.888Z,0.90
2023-03-16T14:15:54.771Z,0.98
2023-03-16T14:18:24.741Z,0.82
2023-03-16T14:20:52.821Z,0.85
2023-03-16T14:23:21.780Z,0.93
2023-03-16T14:25:50.121Z,1.00
2023-03-16T14:28:18.605Z,0.73
2023-03-16T14:30:52.513Z,0.80
2023-03-16T14:33:30.851Z,0.80
2023-03-16T14:35:59.034Z,0.93
2023-03-16T14:38:31.119Z,0.60
2023-03-16T14:40:59.862Z,0.82
2023-03-16T14:43:30.100Z,0.90
2023-03-16T14:45:59.633Z,0.52
2023-03-16T14:48:28.289Z,0.60
2023-03-16T14:50:57.475Z,0.70
2023-03-16T14:53:28.326Z,0.90
2023-03-16T14:55:56.455Z,0.70
2023-03-16T14:58:24.322Z,0.52
2023-03-16T15:00:53.643Z,0.70
2023-03-16T15:03:24.726Z,0.63
2023-03-16T15:05:52.607Z,1.05
2023-03-16T15:08:23.044Z,0.70
2023-03-16T15:10:50.741Z,0.70
2023-03-16T15:13:34.853Z,0.93
2023-03-16T15:16:03.355Z,0.88
2023-03-16T15:18:33.412Z,0.80
2023-03-16T15:21:01.950Z,0.80
2023-03-16T15:23:29.740Z,0.75
2023-03-16T15:26:00.590Z,0.60
2023-03-16T15:28:28.662Z,0.80
2023-03-16T15:30:57.258Z,0.77
2023-03-16T15:33:25.708Z,0.70
2023-03-16T15:35:55.871Z,0.82
2023-03-16T15:38:24.386Z,0.70
2023-03-16T15:40:53.138Z,0.80
2023-03-16T15:43:22.722Z,0.80
2023-03-16T15:45:51.985Z,0.80
2023-03-16T15:48:21.534Z,0.80
2023-03-16T15:50:53.141Z,0.70
2023-03-16T15:53:30.621Z,0.85
2023-03-16T15:56:02.844Z,0.70
2023-03-16T15:58:31.557Z,0.60
2023-03-16T16:01:00.156Z,0.75
2023-03-16T16:03:28.327Z,1.02
2023-03-16T16:05:55.981Z,0.98
2023-03-16T16:08:24.914Z,0.85
2023-03-16T16:10:53.544Z,0.82
2023-03-16T16:13:24.839Z,0.70
2023-03-16T16:15:55.152Z,0.70
2023-03-16T16:18:27.696Z,0.80
2023-03-16T16:20:55.520Z,0.90
2023-03-16T16:23:23.136Z,0.82
2023-03-16T16:25:52.721Z,0.80
2023-03-16T16:28:21.125Z,0.80
2023-03-16T16:30:48.941Z,0.90
2023-03-16T16:33:24.129Z,0.77
2023-03-16T16:35:51.815Z,0.70
2023-03-16T16:38:19.396Z,0.70
2023-03-16T16:40:47.781Z,0.55
2023-03-16T16:43:25.465Z,0.80
2023-03-16T16:45:53.451Z,0.68
2023-03-16T16:48:27.656Z,0.68
2023-03-16T16:50:55.212Z,0.70
2023-03-16T16:53:22.850Z,0.80
2023-03-16T16:55:50.465Z,0.70
2023-03-16T16:58:24.177Z,0.90
2023-03-16T17:00:54.958Z,0.80
2023-03-16T17:03:24.081Z,0.80
2023-03-16T17:05:52.389Z,0.60
2023-03-16T17:08:20.177Z,0.70
2023-03-16T17:10:48.312Z,0.57
2023-03-16T17:13:24.597Z,0.80
2023-03-16T17:15:52.092Z,0.90
2023-03-16T17:18:21.996Z,0.68
2023-03-16T17:20:50.670Z,0.60
